createdAt,value
2022-10-18T00:01:28.629Z,101315.22
2022-10-18T00:03:58.004Z,101322.38
2022-10-18T00:06:27.224Z,101321.19
2022-10-18T00:08:56.399Z,101314.88
2022-10-18T00:11:25.442Z,101317.38
2022-10-18T00:13:54.430Z,101325.97
2022-10-18T00:16:23.548Z,101319.38
2022-10-18T00:18:52.646Z,101327.78
2022-10-18T00:21:24.325Z,101329.97
2022-10-18T00:23:54.656Z,101325.22
2022-10-18T00:26:27.243Z,101326.31
2022-10-18T00:28:59.594Z,101328.19
2022-10-18T00:31:31.995Z,101323.50
2022-10-18T00:34:07.076Z,101330.31
2022-10-18T00:36:36.646Z,101331.97
2022-10-18T00:39:07.844Z,101328.22
2022-10-18T00:41:38.877Z,101332.97
2022-10-18T00:44:14.077Z,101336.22
2022-10-18T00:46:46.282Z,101330.53
2022-10-18T00:49:46.129Z,101330.13
2022-10-18T00:52:20.588Z,101325.41
2022-10-18T00:54:52.889Z,101324.69
2022-10-18T00:57:22.364Z,101328.19
2022-10-18T00:59:51.712Z,101337.34
2022-10-18T01:02:20.846Z,101334.13
2022-10-18T01:04:50.454Z,101333.09
2022-10-18T01:07:39.703Z,101336.66
2022-10-18T01:10:33.449Z,101338.94
2022-10-18T01:13:40.162Z,101341.72
2022-10-18T01:16:33.532Z,101349.72
2022-10-18T01:19:20.512Z,101353.66
2022-10-18T01:22:17.176Z,101342.16
2022-10-18T01:25:24.886Z,101344.88
2022-10-18T01:28:21.851Z,101339.38
2022-10-18T01:31:22.871Z,101338.81
2022-10-18T01:34:03.870Z,101335.03
2022-10-18T01:36:43.827Z,101336.63
2022-10-18T01:39:26.704Z,101342.41
2022-10-18T01:41:57.605Z,101346.56
2022-10-18T01:44:29.211Z,101356.66
2022-10-18T01:46:59.199Z,101358.84
2022-10-18T01:49:28.716Z,101367.38
2022-10-18T01:51:57.710Z,101371.13
2022-10-18T01:54:38.550Z,101372.81
2022-10-18T01:57:20.140Z,101380.16
2022-10-18T02:00:07.272Z,101369.88
2022-10-18T02:03:13.744Z,101373.16
2022-10-18T02:06:20.051Z,101378.00
2022-10-18T02:08:53.970Z,101392.53
2022-10-18T02:11:23.626Z,101388.63
2022-10-18T02:13:57.707Z,101385.94
2022-10-18T02:16:44.887Z,101381.53
2022-10-18T02:19:45.185Z,101387.22
2022-10-18T02:22:16.073Z,101388.94
2022-10-18T02:24:54.690Z,101387.78
2022-10-18T02:27:24.393Z,101393.28
2022-10-18T02:29:54.406Z,101394.03
2022-10-18T02:32:50.971Z,101392.13
2022-10-18T02:35:45.606Z,101399.34
2022-10-18T02:38:17.400Z,101390.81
2022-10-18T02:40:46.995Z,101389.44
2022-10-18T02:43:16.403Z,101379.88
2022-10-18T02:45:45.532Z,101388.66
2022-10-18T02:48:14.561Z,101391.84
2022-10-18T02:50:45.776Z,101391.06
2022-10-18T02:53:14.912Z,101403.16
2022-10-18T02:55:44.293Z,101411.19
2022-10-18T02:58:13.252Z,101412.34
2022-10-18T03:00:42.390Z,101407.97
2022-10-18T03:03:11.374Z,101411.19
2022-10-18T03:05:40.469Z,101414.41
2022-10-18T03:08:09.566Z,101415.69
2022-10-18T03:10:38.618Z,101418.50
2022-10-18T03:13:07.617Z,101403.75
2022-10-18T03:15:36.996Z,101410.56
2022-10-18T03:18:06.234Z,101421.81
2022-10-18T03:20:36.396Z,101416.22
2022-10-18T03:23:05.666Z,101428.25
2022-10-18T03:25:35.475Z,101433.81
2022-10-18T03:28:05.149Z,101437.03
2022-10-18T03:30:34.229Z,101448.25
2022-10-18T03:33:07.643Z,101453.84
2022-10-18T03:35:36.958Z,101453.06
2022-10-18T03:38:05.988Z,101457.06
2022-10-18T03:40:35.315Z,101453.06
2022-10-18T03:43:05.316Z,101448.28
2022-10-18T03:45:34.359Z,101449.88
2022-10-18T03:48:03.676Z,101453.84
2022-10-18T03:50:32.739Z,101443.47
2022-10-18T03:53:01.760Z,101441.94
2022-10-18T03:55:30.879Z,101445.91
2022-10-18T03:57:59.962Z,101451.13
2022-10-18T04:00:30.340Z,101453.94
2022-10-18T04:02:59.308Z,101457.13
2022-10-18T04:05:31.561Z,101446.75
2022-10-18T04:08:00.618Z,101454.75
2022-10-18T04:10:31.375Z,101455.94
2022-10-18T04:13:00.579Z,101464.34
2022-10-18T04:15:30.295Z,101473.13
2022-10-18T04:17:59.467Z,101476.72
2022-10-18T04:20:30.457Z,101481.50
2022-10-18T04:22:59.834Z,101477.91
2022-10-18T04:25:30.198Z,101473.13
2022-10-18T04:27:59.384Z,101474.69
2022-10-18T04:30:28.431Z,101473.53
2022-10-18T04:32:57.446Z,101477.88
2022-10-18T04:35:26.925Z,101473.09
2022-10-18T04:37:56.551Z,101472.31
2022-10-18T04:40:28.271Z,101467.13
2022-10-18T04:42:57.380Z,101471.09
2022-10-18T04:45:26.830Z,101480.28
2022-10-18T04:47:55.924Z,101481.06
2022-10-18T04:50:24.962Z,101480.28
2022-10-18T04:52:54.407Z,101484.25
2022-10-18T04:55:23.519Z,101493.44
2022-10-18T04:57:53.567Z,101487.41
2022-10-18T05:00:22.667Z,101491.41
2022-10-18T05:02:51.893Z,101493.75
2022-10-18T05:05:21.011Z,101494.56
2022-10-18T05:07:49.949Z,101488.19
2022-10-18T05:10:19.126Z,101480.97
2022-10-18T05:12:48.302Z,101488.16
2022-10-18T05:15:17.630Z,101491.31
2022-10-18T05:17:46.602Z,101495.31
2022-10-18T05:20:15.688Z,101500.50
2022-10-18T05:22:44.851Z,101495.31
2022-10-18T05:25:14.068Z,101492.09
2022-10-18T05:27:43.056Z,101491.28
2022-10-18T05:30:12.441Z,101481.69
2022-10-18T05:32:41.488Z,101492.44
2022-10-18T05:35:10.702Z,101494.44
2022-10-18T05:37:40.010Z,101492.03
2022-10-18T05:40:15.708Z,101492.84
2022-10-18T05:42:44.765Z,101487.63
2022-10-18T05:45:13.754Z,101494.38
2022-10-18T05:47:42.966Z,101491.97
2022-10-18T05:50:12.338Z,101495.19
2022-10-18T05:52:41.462Z,101491.97
2022-10-18T05:55:10.652Z,101485.59
2022-10-18T05:57:39.672Z,101483.19
2022-10-18T06:00:09.403Z,101481.56
2022-10-18T06:02:40.576Z,101479.16
2022-10-18T06:05:09.903Z,101484.72
2022-10-18T06:07:38.845Z,101473.59
2022-10-18T06:10:08.333Z,101469.59
2022-10-18T06:12:37.334Z,101469.53
2022-10-18T06:15:06.801Z,101475.06
2022-10-18T06:17:35.994Z,101471.47
2022-10-18T06:20:05.686Z,101477.88
2022-10-18T06:22:35.194Z,101482.25
2022-10-18T06:25:05.869Z,101473.06
2022-10-18T06:27:38.661Z,101473.91
2022-10-18T06:30:08.525Z,101474.28
2022-10-18T06:32:37.639Z,101473.47
2022-10-18T06:35:07.377Z,101477.38
2022-10-18T06:37:40.549Z,101475.75
2022-10-18T06:40:10.810Z,101470.16
2022-10-18T06:42:40.016Z,101477.28
2022-10-18T06:45:10.211Z,101470.34
2022-10-18T06:47:39.194Z,101473.09
2022-10-18T06:50:09.010Z,101465.97
2022-10-18T06:52:38.079Z,101460.38
2022-10-18T06:55:09.208Z,101461.50
2022-10-18T06:57:38.391Z,101459.91
2022-10-18T07:00:07.770Z,101460.31
2022-10-18T07:02:38.354Z,101466.75
2022-10-18T07:05:08.218Z,101473.91
2022-10-18T07:07:37.310Z,101473.03
2022-10-18T07:10:09.261Z,101477.00
2022-10-18T07:12:40.370Z,101475.28
2022-10-18T07:15:09.770Z,101468.38
2022-10-18T07:17:38.830Z,101462.38
2022-10-18T07:20:08.298Z,101460.84
2022-10-18T07:22:39.049Z,101461.53
2022-10-18T07:25:08.496Z,101461.34
2022-10-18T07:27:43.509Z,101463.78
2022-10-18T07:30:13.240Z,101467.75
2022-10-18T07:32:42.339Z,101461.47
2022-10-18T07:37:41.255Z,101455.72
2022-10-18T07:40:12.387Z,101450.22
2022-10-18T07:42:41.628Z,101451.94
2022-10-18T07:45:11.322Z,101458.31
2022-10-18T07:47:41.151Z,101455.09
2022-10-18T07:50:10.969Z,101454.19
2022-10-18T07:52:40.192Z,101454.91
2022-10-18T07:55:09.297Z,101447.69
2022-10-18T07:57:38.375Z,101454.13
2022-10-18T08:00:09.750Z,101446.53
2022-10-18T08:02:40.246Z,101448.38
2022-10-18T08:05:09.688Z,101450.28
2022-10-18T08:07:38.680Z,101451.81
2022-10-18T08:10:08.219Z,101456.31
2022-10-18T08:12:37.329Z,101464.63
2022-10-18T08:15:08.190Z,101472.25
2022-10-18T08:17:37.328Z,101465.00
2022-10-18T08:20:12.271Z,101459.44
2022-10-18T08:22:54.550Z,101456.38
2022-10-18T08:25:26.983Z,101459.16
2022-10-18T08:27:56.308Z,101468.50
2022-10-18T08:30:25.365Z,101474.06
2022-10-18T08:32:54.543Z,101475.31
2022-10-18T08:35:23.761Z,101471.69
2022-10-18T08:37:52.858Z,101469.53
2022-10-18T08:40:22.129Z,101466.91
2022-10-18T08:42:51.704Z,101463.44
2022-10-18T08:45:37.459Z,101470.63
2022-10-18T08:48:22.667Z,101479.06
2022-10-18T08:50:55.519Z,101486.78
2022-10-18T08:53:31.393Z,101493.91
2022-10-18T08:56:15.782Z,101490.84
2022-10-18T08:58:45.862Z,101492.44
2022-10-18T09:01:51.180Z,101492.41
2022-10-18T09:04:48.320Z,101489.53
2022-10-18T09:07:38.675Z,101494.66
2022-10-18T09:10:55.678Z,101497.75
2022-10-18T09:14:11.489Z,101498.53
2022-10-18T09:16:51.732Z,101498.56
2022-10-18T09:19:25.891Z,101502.66
2022-10-18T09:21:59.403Z,101504.56
2022-10-18T09:25:06.326Z,101507.81
2022-10-18T09:27:54.263Z,101496.53
2022-10-18T09:30:38.030Z,101486.66
2022-10-18T09:33:17.516Z,101481.41
2022-10-18T09:36:00.099Z,101484.72
2022-10-18T09:38:35.479Z,101497.41
2022-10-18T09:41:36.589Z,101500.63
2022-10-18T09:44:38.594Z,101500.78
2022-10-18T09:47:31.973Z,101495.38
2022-10-18T09:50:18.817Z,101498.53
2022-10-18T09:53:05.476Z,101499.72
2022-10-18T09:55:39.857Z,101499.28
2022-10-18T09:58:12.741Z,101496.50
2022-10-18T10:00:54.008Z,101492.84
2022-10-18T10:03:23.047Z,101500.56
2022-10-18T10:06:04.161Z,101497.25
2022-10-18T10:08:36.356Z,101497.47
2022-10-18T10:11:05.699Z,101496.69
2022-10-18T10:13:34.850Z,101496.97
2022-10-18T10:16:04.449Z,101502.22
2022-10-18T10:18:37.540Z,101503.50
2022-10-18T10:21:14.383Z,101507.78
2022-10-18T10:23:54.036Z,101508.16
2022-10-18T10:26:23.740Z,101509.22
2022-10-18T10:28:53.219Z,101506.00
2022-10-18T10:31:30.717Z,101504.41
2022-10-18T10:34:01.401Z,101513.16
2022-10-18T10:36:31.648Z,101506.44
2022-10-18T10:39:22.326Z,101517.06
2022-10-18T10:41:58.007Z,101510.59
2022-10-18T10:44:30.381Z,101518.56
2022-10-18T10:47:00.438Z,101522.44
2022-10-18T10:49:47.146Z,101527.91
2022-10-18T10:52:28.015Z,101526.59
2022-10-18T10:57:52.243Z,101520.53
2022-10-18T11:00:38.458Z,101525.66
2022-10-18T11:03:28.638Z,101521.91
2022-10-18T11:06:01.542Z,101518.88
2022-10-18T11:11:32.905Z,101540.38
2022-10-18T11:14:27.275Z,101523.59
2022-10-18T11:17:08.492Z,101520.03
2022-10-18T11:20:05.979Z,101531.66
2022-10-18T11:22:55.163Z,101531.59
2022-10-18T11:25:30.159Z,101540.66
2022-10-18T11:28:11.354Z,101537.16
2022-10-18T11:30:59.780Z,101549.09
2022-10-18T11:34:09.647Z,101555.91
2022-10-18T11:36:56.291Z,101552.00
2022-10-18T11:39:56.602Z,101558.75
2022-10-18T11:42:52.967Z,101558.94
2022-10-18T11:48:07.597Z,101561.84
2022-10-18T11:50:50.279Z,101561.94
2022-10-18T11:53:37.640Z,101562.69
2022-10-18T11:56:18.938Z,101567.13
2022-10-18T11:58:58.162Z,101576.22
2022-10-18T12:01:58.176Z,101575.72
2022-10-18T12:04:34.881Z,101579.97
2022-10-18T12:07:08.268Z,101580.41
2022-10-18T12:09:44.590Z,101586.97
2022-10-18T12:12:33.902Z,101594.88
2022-10-18T12:15:25.031Z,101600.00
2022-10-18T12:17:57.286Z,101605.41
2022-10-18T12:20:39.488Z,101598.31
2022-10-18T12:23:31.352Z,101597.88
2022-10-18T12:26:09.352Z,101593.88
2022-10-18T12:29:15.139Z,101608.19
2022-10-18T12:31:56.213Z,101608.19
2022-10-18T12:34:37.299Z,101616.09
2022-10-18T12:37:36.820Z,101619.88
2022-10-18T12:40:28.628Z,101623.63
2022-10-18T12:42:58.480Z,101619.53
2022-10-18T12:45:36.569Z,101631.16
2022-10-18T12:48:09.855Z,101631.84
2022-10-18T12:50:42.795Z,101634.94
2022-10-18T12:53:13.167Z,101633.69
2022-10-18T12:55:45.573Z,101634.50
2022-10-18T12:58:15.009Z,101644.00
2022-10-18T13:00:44.052Z,101642.34
2022-10-18T13:03:19.001Z,101640.03
2022-10-18T13:05:55.305Z,101637.28
2022-10-18T13:08:42.734Z,101636.09
2022-10-18T13:11:11.843Z,101632.16
2022-10-18T13:13:52.772Z,101637.72
2022-10-18T13:16:33.193Z,101633.75
2022-10-18T13:19:24.038Z,101639.38
2022-10-18T13:22:26.448Z,101649.75
2022-10-18T13:25:16.751Z,101659.31
2022-10-18T13:27:59.027Z,101653.34
2022-10-18T13:30:49.116Z,101663.25
2022-10-18T13:33:30.284Z,101656.13
2022-10-18T13:36:06.308Z,101651.22
2022-10-18T13:39:00.454Z,101639.16
2022-10-18T13:41:34.553Z,101636.81
2022-10-18T13:44:38.139Z,101639.69
2022-10-18T13:47:07.886Z,101658.06
2022-10-18T13:49:40.085Z,101657.63
2022-10-18T13:52:15.165Z,101659.16
2022-10-18T13:55:02.897Z,101658.91
2022-10-18T13:57:47.137Z,101664.44
2022-10-18T14:00:36.135Z,101665.34
2022-10-18T14:03:37.874Z,101662.66
2022-10-18T14:06:26.308Z,101668.13
2022-10-18T14:09:14.155Z,101651.19
2022-10-18T14:12:18.428Z,101655.00
2022-10-18T14:15:10.370Z,101660.53
2022-10-18T14:18:01.384Z,101669.53
2022-10-18T14:20:49.436Z,101668.63
2022-10-18T14:23:30.542Z,101666.22
2022-10-18T14:26:19.666Z,101663.00
2022-10-18T14:29:04.584Z,101663.00
2022-10-18T14:31:34.406Z,101663.97
2022-10-18T14:34:04.461Z,101669.97
2022-10-18T14:36:42.605Z,101683.03
2022-10-18T14:39:21.976Z,101678.91
2022-10-18T14:41:56.520Z,101682.84
2022-10-18T14:44:31.666Z,101681.00
2022-10-18T14:47:15.014Z,101667.38
2022-10-18T14:49:45.519Z,101672.09
2022-10-18T14:52:21.126Z,101672.22
2022-10-18T14:54:52.307Z,101672.66
2022-10-18T14:57:26.192Z,101679.25
2022-10-18T15:00:02.760Z,101686.69
2022-10-18T15:02:36.273Z,101691.97
2022-10-18T15:05:27.788Z,101696.69
2022-10-18T15:08:00.484Z,101704.66
2022-10-18T15:10:34.697Z,101701.50
2022-10-18T15:13:10.923Z,101703.84
2022-10-18T15:15:40.695Z,101705.38
2022-10-18T15:18:20.424Z,101711.63
2022-10-18T15:21:21.893Z,101722.16
2022-10-18T15:23:52.210Z,101713.97
2022-10-18T15:26:30.482Z,101713.97
2022-10-18T15:29:02.978Z,101717.03
2022-10-18T15:31:38.309Z,101713.53
2022-10-18T15:34:11.956Z,101711.56
2022-10-18T15:36:41.084Z,101723.94
2022-10-18T15:39:16.090Z,101725.78
2022-10-18T15:41:54.980Z,101727.56
2022-10-18T15:44:33.009Z,101725.78
2022-10-18T15:47:22.171Z,101721.50
2022-10-18T15:49:59.506Z,101714.69
2022-10-18T15:52:44.206Z,101703.38
2022-10-18T15:55:31.665Z,101695.53
2022-10-18T15:58:07.780Z,101683.44
2022-10-18T16:00:37.195Z,101681.47
2022-10-18T16:03:10.043Z,101670.28
2022-10-18T16:05:39.963Z,101678.59
2022-10-18T16:08:37.912Z,101682.53
2022-10-18T16:11:07.423Z,101686.50
2022-10-18T16:13:36.445Z,101684.44
2022-10-18T16:16:05.691Z,101684.56
2022-10-18T16:18:35.114Z,101679.34
2022-10-18T16:21:04.235Z,101676.19
2022-10-18T16:23:33.332Z,101676.53
2022-10-18T16:26:02.458Z,101673.72
2022-10-18T16:28:32.605Z,101659.50
2022-10-18T16:31:04.826Z,101655.44
2022-10-18T16:33:34.032Z,101653.44
2022-10-18T16:36:02.977Z,101659.31
2022-10-18T16:38:35.608Z,101663.84
2022-10-18T16:41:07.163Z,101660.34
2022-10-18T16:43:37.467Z,101658.69
2022-10-18T16:46:08.078Z,101661.34
2022-10-18T16:48:37.601Z,101666.78
2022-10-18T16:51:06.920Z,101670.41
2022-10-18T16:53:36.056Z,101676.03
2022-10-18T16:56:07.623Z,101678.22
2022-10-18T16:58:38.471Z,101687.22
2022-10-18T17:01:08.994Z,101680.34
2022-10-18T17:03:39.290Z,101673.78
2022-10-18T17:06:25.400Z,101682.25
2022-10-18T17:08:55.466Z,101692.63
2022-10-18T17:11:27.533Z,101681.16
2022-10-18T17:13:57.027Z,101677.44
2022-10-18T17:16:31.600Z,101682.13
2022-10-18T17:19:04.147Z,101670.69
2022-10-18T17:21:34.505Z,101673.16
2022-10-18T17:24:09.101Z,101666.03
2022-10-18T17:26:38.611Z,101673.31
2022-10-18T17:29:10.995Z,101667.28
2022-10-18T17:31:42.765Z,101677.88
2022-10-18T17:34:12.005Z,101665.66
2022-10-18T17:36:41.631Z,101666.50
2022-10-18T17:39:10.865Z,101674.66
2022-10-18T17:41:39.870Z,101681.84
2022-10-18T17:44:09.423Z,101679.56
2022-10-18T17:46:38.504Z,101685.16
2022-10-18T17:49:07.623Z,101703.31
2022-10-18T17:51:36.921Z,101707.41
2022-10-18T17:54:08.005Z,101719.13
2022-10-18T17:56:37.814Z,101730.78
2022-10-18T17:59:07.052Z,101727.84
2022-10-18T18:01:36.728Z,101743.91
2022-10-18T18:04:06.266Z,101743.81
2022-10-18T18:06:39.819Z,101752.25
2022-10-18T18:09:18.017Z,101765.81
2022-10-18T18:11:50.511Z,101774.53
2022-10-18T18:14:23.058Z,101781.63
2022-10-18T18:16:55.131Z,101786.25
2022-10-18T18:19:25.267Z,101789.94
2022-10-18T18:21:55.863Z,101792.47
2022-10-18T18:24:25.673Z,101781.16
2022-10-18T18:26:57.466Z,101777.16
2022-10-18T18:29:28.402Z,101781.09
2022-10-18T18:31:58.013Z,101781.66
2022-10-18T18:34:27.257Z,101771.28
2022-10-18T18:36:56.432Z,101788.44
2022-10-18T18:39:31.541Z,101783.97
2022-10-18T18:42:00.683Z,101791.28
2022-10-18T18:44:30.564Z,101792.41
2022-10-18T18:47:00.052Z,101791.41
2022-10-18T18:49:32.213Z,101789.59
2022-10-18T18:52:01.444Z,101792.03
2022-10-18T18:54:31.234Z,101788.44
2022-10-18T18:57:00.470Z,101787.50
2022-10-18T18:59:29.474Z,101794.38
2022-10-18T19:01:58.512Z,101797.84
2022-10-18T19:04:29.833Z,101794.66
2022-10-18T19:06:59.162Z,101799.75
2022-10-18T19:09:28.458Z,101807.91
2022-10-18T19:11:57.691Z,101800.13
2022-10-18T19:14:26.887Z,101806.69
2022-10-18T19:16:59.692Z,101801.09
2022-10-18T19:19:31.991Z,101802.69
2022-10-18T19:22:05.333Z,101812.34
2022-10-18T19:24:34.506Z,101800.34
2022-10-18T19:27:10.477Z,101799.72
2022-10-18T19:29:41.325Z,101810.50
2022-10-18T19:32:12.999Z,101817.28
2022-10-18T19:34:43.491Z,101809.47
2022-10-18T19:37:16.445Z,101806.69
2022-10-18T19:39:45.548Z,101809.97
2022-10-18T19:42:18.694Z,101803.19
2022-10-18T19:44:51.966Z,101812.69
2022-10-18T19:47:21.436Z,101814.41
2022-10-18T19:49:50.612Z,101812.00
2022-10-18T19:52:19.737Z,101811.22
2022-10-18T19:54:50.602Z,101793.97
2022-10-18T19:57:19.929Z,101799.16
2022-10-18T19:59:49.270Z,101801.53
2022-10-18T20:02:18.514Z,101805.53
2022-10-18T20:04:48.688Z,101803.44
2022-10-18T20:07:17.994Z,101802.22
2022-10-18T20:09:48.814Z,101810.25
2022-10-18T20:12:17.961Z,101813.31
2022-10-18T20:14:47.019Z,101811.72
2022-10-18T20:17:16.569Z,101816.44
2022-10-18T20:19:45.620Z,101812.38
2022-10-18T20:22:14.886Z,101808.94
2022-10-18T20:24:47.438Z,101803.28
2022-10-18T20:27:17.024Z,101795.25
2022-10-18T20:29:46.406Z,101793.13
2022-10-18T20:32:16.242Z,101791.38
2022-10-18T20:34:48.599Z,101786.13
2022-10-18T20:37:17.789Z,101782.31
2022-10-18T20:39:49.783Z,101791.75
2022-10-18T20:42:21.748Z,101789.78
2022-10-18T20:44:51.002Z,101781.41
2022-10-18T20:47:21.980Z,101791.31
2022-10-18T20:49:52.840Z,101784.88
2022-10-18T20:52:22.467Z,101786.56
2022-10-18T20:54:51.823Z,101786.38
2022-10-18T20:57:21.245Z,101782.03
2022-10-18T20:59:52.739Z,101784.13
2022-10-18T21:02:23.044Z,101770.75
2022-10-18T21:04:53.108Z,101771.53
2022-10-18T21:07:22.186Z,101773.06
2022-10-18T21:09:55.280Z,101774.06
2022-10-18T21:12:25.531Z,101774.84
2022-10-18T21:14:56.787Z,101779.00
2022-10-18T21:17:26.003Z,101768.84
2022-10-18T21:19:55.273Z,101763.88
2022-10-18T21:22:24.357Z,101765.25
2022-10-18T21:24:53.563Z,101768.13
2022-10-18T21:27:22.629Z,101761.53
2022-10-18T21:29:54.448Z,101754.28
2022-10-18T21:32:23.635Z,101753.84
2022-10-18T21:34:52.695Z,101751.81
2022-10-18T21:37:24.851Z,101751.91
2022-10-18T21:39:54.089Z,101756.75
2022-10-18T21:42:23.316Z,101752.00
2022-10-18T21:44:52.930Z,101747.06
2022-10-18T21:47:22.025Z,101747.03
2022-10-18T21:49:51.185Z,101748.75
2022-10-18T21:52:20.581Z,101747.41
2022-10-18T21:54:49.582Z,101749.59
2022-10-18T21:57:19.439Z,101742.78
2022-10-18T21:59:48.686Z,101749.22
2022-10-18T22:02:17.711Z,101746.91
2022-10-18T22:04:47.798Z,101745.25
2022-10-18T22:07:17.426Z,101746.56
2022-10-18T22:09:46.701Z,101748.91
2022-10-18T22:12:16.024Z,101750.09
2022-10-18T22:14:45.260Z,101754.16
2022-10-18T22:17:14.297Z,101756.13
2022-10-18T22:19:48.131Z,101763.09
2022-10-18T22:22:17.413Z,101757.97
2022-10-18T22:24:46.471Z,101749.94
2022-10-18T22:27:15.616Z,101747.75
2022-10-18T22:29:46.988Z,101748.72
2022-10-18T22:32:16.177Z,101744.25
2022-10-18T22:34:45.232Z,101747.72
2022-10-18T22:37:14.343Z,101741.09
2022-10-18T22:39:46.140Z,101745.50
2022-10-18T22:42:15.294Z,101743.66
2022-10-18T22:44:46.715Z,101739.16
2022-10-18T22:47:16.130Z,101735.09
2022-10-18T22:49:46.080Z,101737.19
2022-10-18T22:52:15.176Z,101738.06
2022-10-18T22:54:47.392Z,101735.31
2022-10-18T22:57:18.099Z,101745.44
2022-10-18T22:59:47.400Z,101734.06
2022-10-18T23:02:18.998Z,101737.19
2022-10-18T23:04:50.113Z,101740.09
2022-10-18T23:07:19.522Z,101736.84
2022-10-18T23:09:48.817Z,101736.81
2022-10-18T23:12:19.014Z,101731.09
2022-10-18T23:14:51.111Z,101734.63
2022-10-18T23:17:20.432Z,101733.56
2022-10-18T23:19:52.302Z,101731.69
2022-10-18T23:22:24.412Z,101734.84
2022-10-18T23:24:53.703Z,101733.44
2022-10-18T23:27:22.808Z,101724.63
2022-10-18T23:29:52.086Z,101730.75
2022-10-18T23:32:24.414Z,101724.16
2022-10-18T23:34:53.727Z,101727.94
2022-10-18T23:37:23.260Z,101730.38
2022-10-18T23:39:53.134Z,101725.88
2022-10-18T23:42:22.840Z,101731.56
2022-10-18T23:44:52.366Z,101718.50
2022-10-18T23:47:21.483Z,101721.06
2022-10-18T23:49:50.883Z,101720.09
2022-10-18T23:52:20.070Z,101726.78
2022-10-18T23:54:49.386Z,101720.59
2022-10-18T23:57:18.450Z,101717.69
2022-10-18T23:59:47.690Z,101716.34
